createdAt,value
2018-10-18T00:01:50.861Z,89.08
2018-10-18T00:04:19.156Z,88.96
2018-10-18T00:06:47.468Z,89.97
2018-10-18T00:09:15.788Z,89.78
2018-10-18T00:11:44.155Z,89.15
2018-10-18T00:14:12.601Z,90.46
2018-10-18T00:16:40.858Z,90.49
2018-10-18T00:19:09.343Z,91.09
2018-10-18T00:21:37.666Z,90.04
2018-10-18T00:24:06.070Z,90.52
2018-10-18T00:26:34.374Z,90.25
2018-10-18T00:29:02.737Z,90.39
2018-10-18T00:31:31.061Z,90.49
2018-10-18T00:33:59.406Z,91.22
2018-10-18T00:36:27.744Z,92.28
2018-10-18T00:38:56.098Z,93.13
2018-10-18T00:41:24.636Z,92.32
2018-10-18T00:43:52.955Z,91.13
2018-10-18T00:46:21.303Z,90.92
2018-10-18T00:48:49.640Z,90.56
2018-10-18T00:51:17.999Z,90.78
2018-10-18T00:53:46.299Z,91.50
2018-10-18T00:56:14.718Z,91.45
2018-10-18T00:58:43.045Z,91.02
2018-10-18T01:01:11.371Z,91.24
2018-10-18T01:03:39.786Z,91.55
2018-10-18T01:06:08.116Z,92.23
2018-10-18T01:08:36.490Z,91.83
2018-10-18T01:11:04.875Z,91.40
2018-10-18T01:13:33.227Z,91.18
2018-10-18T01:16:01.544Z,91.91
2018-10-18T01:18:29.931Z,91.48
2018-10-18T01:20:58.281Z,91.36
2018-10-18T01:23:26.594Z,91.32
2018-10-18T01:25:54.979Z,90.77
2018-10-18T01:28:23.296Z,91.00
2018-10-18T01:30:51.664Z,90.60
2018-10-18T01:33:20.008Z,90.64
2018-10-18T01:35:48.369Z,90.42
2018-10-18T01:38:16.794Z,91.07
2018-10-18T01:40:45.131Z,90.99
2018-10-18T01:43:13.449Z,90.55
2018-10-18T01:45:41.812Z,90.71
2018-10-18T01:48:10.490Z,91.22
2018-10-18T01:50:38.712Z,91.01
2018-10-18T01:53:07.608Z,91.49
2018-10-18T01:55:35.953Z,91.09
2018-10-18T01:58:04.356Z,91.25
2018-10-18T02:00:32.673Z,90.39
2018-10-18T02:03:01.128Z,91.15
2018-10-18T02:05:29.445Z,90.57
2018-10-18T02:07:57.780Z,90.95
2018-10-18T02:10:26.072Z,90.74
2018-10-18T02:12:54.390Z,90.54
2018-10-18T02:15:22.699Z,90.95
2018-10-18T02:17:51.050Z,91.13
2018-10-18T02:20:19.367Z,90.65
2018-10-18T02:22:47.756Z,91.25
2018-10-18T02:25:16.232Z,90.37
2018-10-18T02:27:44.617Z,90.85
2018-10-18T02:30:13.045Z,90.90
2018-10-18T02:32:41.341Z,90.43
2018-10-18T02:35:09.703Z,91.31
2018-10-18T02:37:37.988Z,90.95
2018-10-18T02:40:06.412Z,92.27
2018-10-18T02:42:34.704Z,92.54
2018-10-18T02:45:03.140Z,92.63
2018-10-18T02:47:31.567Z,92.03
2018-10-18T02:49:59.902Z,92.37
2018-10-18T02:52:28.300Z,93.40
2018-10-18T02:54:56.612Z,93.57
2018-10-18T02:57:24.914Z,93.18
2018-10-18T02:59:53.351Z,92.78
2018-10-18T03:02:21.677Z,92.17
2018-10-18T03:04:50.040Z,93.08
2018-10-18T03:07:18.336Z,92.54
2018-10-18T03:09:46.707Z,92.76
2018-10-18T03:12:15.048Z,92.63
2018-10-18T03:14:43.555Z,92.47
2018-10-18T03:17:11.868Z,92.94
2018-10-18T03:19:40.245Z,92.89
2018-10-18T03:22:08.541Z,92.94
2018-10-18T03:24:36.896Z,92.83
2018-10-18T03:27:05.831Z,92.33
2018-10-18T03:29:34.155Z,92.16
2018-10-18T03:32:02.489Z,92.81
2018-10-18T03:34:30.810Z,93.04
2018-10-18T03:36:59.127Z,92.26
2018-10-18T03:39:27.479Z,92.38
2018-10-18T03:41:55.767Z,92.79
2018-10-18T03:44:24.183Z,92.01
2018-10-18T03:46:52.541Z,92.75
2018-10-18T03:49:20.943Z,92.95
2018-10-18T03:51:49.352Z,92.54
2018-10-18T03:54:17.729Z,94.15
2018-10-18T03:56:46.231Z,93.67
2018-10-18T03:59:14.568Z,93.91
2018-10-18T04:01:42.898Z,94.29
2018-10-18T04:04:11.227Z,95.91
2018-10-18T04:06:39.536Z,95.01
2018-10-18T04:09:09.157Z,95.67
2018-10-18T04:11:37.522Z,97.68
2018-10-18T04:14:06.103Z,99.04
2018-10-18T04:16:34.563Z,98.79
2018-10-18T04:19:02.944Z,97.29
2018-10-18T04:21:31.283Z,97.82
2018-10-18T04:23:59.770Z,98.25
2018-10-18T04:26:28.212Z,98.64
2018-10-18T04:28:56.679Z,96.89
2018-10-18T04:31:25.039Z,95.76
2018-10-18T04:33:53.358Z,95.30
2018-10-18T04:36:21.722Z,94.28
2018-10-18T04:38:50.041Z,95.58
2018-10-18T04:41:18.480Z,95.97
2018-10-18T04:43:46.820Z,94.85
2018-10-18T04:46:15.170Z,97.44
2018-10-18T04:48:43.502Z,97.62
2018-10-18T04:51:11.876Z,96.73
2018-10-18T04:53:40.193Z,96.09
2018-10-18T04:56:08.579Z,96.18
2018-10-18T04:58:36.912Z,95.91
2018-10-18T05:01:05.566Z,95.29
2018-10-18T05:03:33.818Z,97.38
2018-10-18T05:06:03.859Z,98.10
2018-10-18T05:08:32.282Z,98.13
2018-10-18T05:11:00.651Z,98.36
2018-10-18T05:13:29.047Z,97.71
2018-10-18T05:15:57.457Z,97.74
2018-10-18T05:18:25.832Z,97.15
2018-10-18T05:20:54.242Z,96.95
2018-10-18T05:23:22.620Z,97.47
2018-10-18T05:25:51.477Z,97.46
2018-10-18T05:28:20.187Z,97.12
2018-10-18T05:30:48.743Z,96.94
2018-10-18T05:33:17.075Z,96.98
2018-10-18T05:35:45.368Z,97.72
2018-10-18T05:38:13.936Z,97.35
2018-10-18T05:40:42.282Z,97.28
2018-10-18T05:43:10.710Z,96.32
2018-10-18T05:45:39.001Z,96.12
2018-10-18T05:48:07.431Z,96.45
2018-10-18T05:50:35.769Z,96.09
2018-10-18T05:53:04.203Z,95.90
2018-10-18T05:55:32.534Z,95.84
2018-10-18T05:58:00.887Z,96.39
2018-10-18T06:00:29.195Z,96.47
2018-10-18T06:02:57.524Z,96.09
2018-10-18T06:05:25.874Z,96.05
2018-10-18T06:07:54.239Z,96.03
2018-10-18T06:10:34.137Z,96.30
2018-10-18T06:13:02.881Z,95.97
2018-10-18T06:15:32.026Z,96.21
2018-10-18T06:18:00.400Z,96.13
2018-10-18T06:20:28.912Z,95.90
2018-10-18T06:22:57.372Z,95.58
2018-10-18T06:25:25.598Z,95.72
2018-10-18T06:27:53.948Z,95.73
2018-10-18T06:30:22.265Z,95.65
2018-10-18T06:32:50.592Z,95.00
2018-10-18T06:35:18.943Z,95.41
2018-10-18T06:37:47.269Z,96.08
2018-10-18T06:40:17.045Z,95.13
2018-10-18T06:42:45.377Z,95.43
2018-10-18T06:45:16.044Z,95.80
2018-10-18T06:47:44.845Z,95.59
2018-10-18T06:50:18.472Z,95.02
2018-10-18T06:52:46.808Z,95.56
2018-10-18T06:55:15.272Z,95.21
2018-10-18T06:57:44.171Z,94.50
2018-10-18T07:00:14.702Z,94.86
2018-10-18T07:02:43.606Z,94.04
2018-10-18T07:05:13.099Z,94.34
2018-10-18T07:07:41.975Z,94.12
2018-10-18T07:10:15.429Z,94.28
2018-10-18T07:12:43.811Z,94.86
2018-10-18T07:15:13.167Z,94.48
2018-10-18T07:17:42.399Z,94.18
2018-10-18T07:20:11.131Z,94.49
2018-10-18T07:22:39.940Z,94.13
2018-10-18T07:25:10.621Z,93.96
2018-10-18T07:27:39.411Z,93.23
2018-10-18T07:30:08.772Z,93.11
2018-10-18T07:32:37.138Z,93.30
2018-10-18T07:35:06.366Z,93.42
2018-10-18T07:37:34.732Z,92.82
2018-10-18T07:40:03.196Z,92.53
2018-10-18T07:42:31.516Z,92.16
2018-10-18T07:44:59.906Z,91.89
2018-10-18T07:47:28.232Z,91.75
2018-10-18T07:49:56.577Z,91.31
2018-10-18T07:52:24.892Z,91.05
2018-10-18T07:54:53.281Z,91.55
2018-10-18T07:57:21.654Z,91.35
2018-10-18T07:59:50.048Z,90.71
2018-10-18T08:02:18.535Z,90.98
2018-10-18T08:04:46.900Z,91.08
2018-10-18T08:07:15.321Z,91.04
2018-10-18T08:09:43.650Z,90.45
2018-10-18T08:12:12.013Z,90.20
2018-10-18T08:14:40.452Z,89.68
2018-10-18T08:17:08.858Z,89.79
2018-10-18T08:19:37.229Z,89.38
2018-10-18T08:22:05.749Z,89.22
2018-10-18T08:24:34.168Z,89.01
2018-10-18T08:27:02.608Z,88.69
2018-10-18T08:29:30.985Z,86.97
2018-10-18T08:31:59.608Z,87.51
2018-10-18T08:34:27.935Z,87.58
2018-10-18T08:36:56.284Z,85.98
2018-10-18T08:39:24.637Z,85.41
2018-10-18T08:41:52.959Z,85.11
2018-10-18T08:44:21.350Z,84.83
2018-10-18T08:46:49.668Z,85.20
2018-10-18T08:49:18.122Z,84.95
2018-10-18T08:51:46.506Z,85.08
2018-10-18T08:54:14.832Z,85.64
2018-10-18T08:56:43.164Z,87.58
2018-10-18T08:59:11.512Z,87.27
2018-10-18T09:01:39.901Z,87.34
2018-10-18T09:04:08.316Z,87.90
2018-10-18T09:06:37.046Z,87.77
2018-10-18T09:09:07.619Z,86.73
2018-10-18T09:11:36.055Z,87.21
2018-10-18T09:14:04.406Z,87.54
2018-10-18T09:16:32.845Z,86.75
2018-10-18T09:19:01.206Z,87.13
2018-10-18T09:21:29.539Z,87.27
2018-10-18T09:23:57.993Z,87.16
2018-10-18T09:26:26.325Z,88.67
2018-10-18T09:28:54.685Z,89.54
2018-10-18T09:31:23.077Z,88.82
2018-10-18T09:33:51.458Z,89.08
2018-10-18T09:36:19.826Z,90.59
2018-10-18T09:38:48.423Z,91.37
2018-10-18T09:41:16.791Z,91.33
2018-10-18T09:43:45.169Z,91.51
2018-10-18T09:46:13.530Z,92.42
2018-10-18T09:48:42.026Z,92.62
2018-10-18T09:51:10.360Z,91.57
2018-10-18T09:53:38.760Z,92.32
2018-10-18T09:56:07.239Z,92.88
2018-10-18T09:58:35.814Z,92.73
2018-10-18T10:01:09.736Z,93.59
2018-10-18T10:03:38.112Z,94.19
2018-10-18T10:06:06.925Z,94.58
2018-10-18T10:08:35.434Z,94.25
2018-10-18T10:11:03.820Z,93.49
2018-10-18T10:13:32.430Z,93.47
2018-10-18T10:16:00.867Z,93.91
2018-10-18T10:18:29.265Z,93.78
2018-10-18T10:20:57.638Z,93.69
2018-10-18T10:23:26.224Z,93.21
2018-10-18T10:25:54.594Z,93.48
2018-10-18T10:28:22.975Z,93.47
2018-10-18T10:30:51.343Z,93.46
2018-10-18T10:33:19.892Z,92.74
2018-10-18T10:35:48.175Z,92.08
2018-10-18T10:38:16.553Z,91.81
2018-10-18T10:40:45.003Z,91.92
2018-10-18T10:43:13.351Z,90.19
2018-10-18T10:45:41.782Z,89.30
2018-10-18T10:48:10.159Z,88.72
2018-10-18T10:50:38.463Z,88.81
2018-10-18T10:53:06.844Z,87.42
2018-10-18T10:55:35.176Z,87.23
2018-10-18T10:58:03.581Z,85.58
2018-10-18T11:01:17.238Z,85.81
2018-10-18T11:03:45.938Z,85.71
2018-10-18T11:06:14.590Z,85.63
2018-10-18T11:08:42.960Z,84.97
2018-10-18T11:11:11.988Z,84.38
2018-10-18T11:13:40.445Z,83.76
2018-10-18T11:16:09.016Z,83.94
2018-10-18T11:18:38.382Z,84.20
2018-10-18T11:21:07.994Z,83.75
2018-10-18T11:23:36.638Z,84.59
2018-10-18T11:26:05.219Z,84.76
2018-10-18T11:28:33.805Z,85.94
2018-10-18T11:31:02.281Z,85.13
2018-10-18T11:33:30.703Z,84.71
2018-10-18T11:35:59.075Z,83.52
2018-10-18T11:38:32.402Z,82.29
2018-10-18T11:41:00.859Z,83.47
2018-10-18T11:43:29.293Z,83.10
2018-10-18T11:45:57.627Z,81.44
2018-10-18T11:48:26.014Z,81.85
2018-10-18T11:50:54.403Z,80.26
2018-10-18T11:53:22.834Z,79.43
2018-10-18T11:55:51.119Z,78.11
2018-10-18T11:58:19.430Z,78.93
2018-10-18T12:00:47.941Z,78.02
2018-10-18T12:03:16.263Z,77.59
2018-10-18T12:05:44.689Z,78.04
2018-10-18T12:08:13.293Z,76.42
2018-10-18T12:10:41.491Z,76.60
2018-10-18T12:13:09.986Z,76.98
2018-10-18T12:15:38.406Z,77.66
2018-10-18T12:18:06.756Z,77.10
2018-10-18T12:20:35.312Z,77.35
2018-10-18T12:23:03.701Z,77.31
2018-10-18T12:25:32.044Z,76.91
2018-10-18T12:28:00.424Z,76.82
2018-10-18T12:30:29.823Z,76.27
2018-10-18T12:32:58.171Z,75.55
2018-10-18T12:35:26.517Z,75.23
2018-10-18T12:37:54.891Z,75.82
2018-10-18T12:40:23.426Z,75.80
2018-10-18T12:42:52.061Z,75.44
2018-10-18T12:45:20.446Z,75.66
2018-10-18T12:47:52.205Z,75.52
2018-10-18T12:50:20.525Z,74.48
2018-10-18T12:52:48.826Z,74.38
2018-10-18T12:55:17.222Z,74.37
2018-10-18T12:57:45.632Z,74.74
2018-10-18T13:00:14.135Z,74.13
2018-10-18T13:02:42.368Z,74.47
2018-10-18T13:05:11.583Z,73.72
2018-10-18T13:07:39.962Z,73.31
2018-10-18T13:10:10.324Z,73.96
2018-10-18T13:12:38.810Z,73.28
2018-10-18T13:15:08.544Z,73.33
2018-10-18T13:17:36.912Z,73.88
2018-10-18T13:20:06.241Z,73.36
2018-10-18T13:22:34.731Z,73.33
2018-10-18T13:25:03.057Z,73.27
2018-10-18T13:27:31.440Z,73.12
2018-10-18T13:29:59.826Z,72.68
2018-10-18T13:32:28.107Z,72.78
2018-10-18T13:34:56.622Z,73.22
2018-10-18T13:37:24.907Z,71.54
2018-10-18T13:39:53.261Z,70.17
2018-10-18T13:42:21.564Z,71.42
2018-10-18T13:44:49.937Z,70.95
2018-10-18T13:47:18.256Z,70.80
2018-10-18T13:49:46.574Z,70.92
2018-10-18T13:52:15.023Z,69.78
2018-10-18T13:54:43.440Z,70.10
2018-10-18T13:57:11.791Z,67.26
2018-10-18T13:59:51.360Z,67.68
2018-10-18T14:02:19.713Z,69.46
2018-10-18T14:04:54.693Z,67.90
2018-10-18T14:07:23.049Z,67.94
2018-10-18T14:09:51.557Z,68.75
2018-10-18T14:12:19.983Z,68.35
2018-10-18T14:14:48.365Z,69.48
2018-10-18T14:17:16.844Z,69.72
2018-10-18T14:19:45.085Z,69.66
2018-10-18T14:22:13.415Z,69.01
2018-10-18T14:24:41.712Z,68.06
2018-10-18T14:27:10.232Z,68.00
2018-10-18T14:29:38.708Z,69.55
2018-10-18T14:32:07.515Z,70.00
2018-10-18T14:34:36.111Z,70.30
2018-10-18T14:37:04.688Z,69.48
2018-10-18T14:39:32.999Z,69.00
2018-10-18T14:42:01.331Z,71.21
2018-10-18T14:44:29.771Z,71.52
2018-10-18T14:46:58.195Z,70.60
2018-10-18T14:49:26.606Z,71.26
2018-10-18T14:51:54.947Z,71.80
2018-10-18T14:54:23.659Z,71.72
2018-10-18T14:56:52.004Z,71.79
2018-10-18T14:59:20.594Z,72.48
2018-10-18T15:01:49.291Z,72.29
2018-10-18T15:04:17.661Z,73.27
2018-10-18T15:06:46.040Z,73.02
2018-10-18T15:09:14.445Z,72.91
2018-10-18T15:11:42.810Z,73.17
2018-10-18T15:14:11.126Z,73.47
2018-10-18T15:16:39.431Z,74.80
2018-10-18T15:19:07.739Z,74.33
2018-10-18T15:21:36.151Z,74.76
2018-10-18T15:24:04.835Z,74.62
2018-10-18T15:26:33.429Z,74.21
2018-10-18T15:29:01.600Z,74.98
2018-10-18T15:31:29.899Z,74.69
2018-10-18T15:33:58.326Z,75.04
2018-10-18T15:36:26.651Z,75.08
2018-10-18T15:38:55.161Z,75.61
2018-10-18T15:41:23.297Z,74.87
2018-10-18T15:43:52.602Z,75.15
2018-10-18T15:46:21.102Z,74.86
2018-10-18T15:48:49.408Z,75.73
2018-10-18T15:51:17.824Z,75.45
2018-10-18T15:53:46.043Z,75.92
2018-10-18T15:56:14.404Z,75.31
2018-10-18T15:58:42.690Z,74.97
2018-10-18T16:01:10.997Z,74.84
2018-10-18T16:03:39.295Z,74.34
2018-10-18T16:06:07.711Z,74.41
2018-10-18T16:08:36.298Z,73.77
2018-10-18T16:11:04.820Z,70.94
2018-10-18T16:13:33.479Z,70.84
2018-10-18T16:16:01.724Z,71.25
2018-10-18T16:18:30.036Z,72.33
2018-10-18T16:20:58.509Z,71.41
2018-10-18T16:23:26.820Z,71.36
2018-10-18T16:25:55.346Z,71.03
2018-10-18T16:28:23.613Z,71.84
2018-10-18T16:30:51.993Z,73.15
2018-10-18T16:33:20.331Z,72.93
2018-10-18T16:35:49.232Z,72.72
2018-10-18T16:38:17.929Z,72.58
2018-10-18T16:40:46.165Z,73.33
2018-10-18T16:43:14.610Z,73.90
2018-10-18T16:45:42.891Z,72.53
2018-10-18T16:48:11.600Z,73.26
2018-10-18T16:50:40.103Z,73.78
2018-10-18T16:53:08.620Z,73.93
2018-10-18T16:55:37.063Z,74.47
2018-10-18T16:58:05.509Z,76.40
2018-10-18T17:00:33.834Z,76.93
2018-10-18T17:03:02.305Z,78.00
2018-10-18T17:05:30.588Z,78.73
2018-10-18T17:07:59.169Z,79.50
2018-10-18T17:10:27.788Z,79.82
2018-10-18T17:12:56.220Z,79.70
2018-10-18T17:15:24.578Z,80.38
2018-10-18T17:17:53.059Z,80.95
2018-10-18T17:20:21.597Z,81.57
2018-10-18T17:22:50.180Z,81.39
2018-10-18T17:25:18.627Z,81.45
2018-10-18T17:27:47.116Z,82.19
2018-10-18T17:30:15.628Z,82.31
2018-10-18T17:32:44.000Z,82.39
2018-10-18T17:35:12.342Z,82.79
2018-10-18T17:37:40.623Z,83.40
2018-10-18T17:40:09.813Z,82.99
2018-10-18T17:42:38.473Z,83.61
2018-10-18T17:45:08.345Z,83.86
2018-10-18T17:47:36.772Z,83.90
2018-10-18T17:50:05.651Z,85.18
2018-10-18T17:52:34.884Z,84.79
2018-10-18T17:55:03.498Z,84.84
2018-10-18T17:57:31.895Z,85.53
2018-10-18T18:00:00.370Z,85.33
2018-10-18T18:02:28.637Z,85.10
2018-10-18T18:04:56.995Z,85.74
2018-10-18T18:07:25.454Z,85.48
2018-10-18T18:09:53.863Z,86.06
2018-10-18T18:12:22.191Z,86.39
2018-10-18T18:14:50.555Z,86.50
2018-10-18T18:17:19.052Z,86.53
2018-10-18T18:19:47.401Z,86.17
2018-10-18T18:22:15.759Z,86.49
2018-10-18T18:24:44.059Z,86.56
2018-10-18T18:27:12.371Z,86.61
2018-10-18T18:29:40.740Z,86.98
2018-10-18T18:32:09.441Z,87.25
2018-10-18T18:34:39.621Z,87.12
2018-10-18T18:37:13.067Z,87.69
2018-10-18T18:39:45.735Z,87.59
2018-10-18T18:42:15.539Z,87.59
2018-10-18T18:44:46.336Z,87.82
2018-10-18T18:47:17.863Z,88.03
2018-10-18T18:49:46.150Z,87.40
2018-10-18T18:52:14.595Z,87.65
2018-10-18T18:54:45.031Z,87.28
2018-10-18T18:57:13.463Z,87.92
2018-10-18T18:59:41.732Z,87.97
2018-10-18T19:02:10.046Z,88.63
2018-10-18T19:04:39.418Z,89.97
2018-10-18T19:07:07.735Z,89.61
2018-10-18T19:09:36.112Z,88.94
2018-10-18T19:12:04.656Z,88.17
2018-10-18T19:14:33.092Z,89.41
2018-10-18T19:17:01.602Z,89.12
2018-10-18T19:19:29.881Z,89.69
2018-10-18T19:21:58.319Z,89.35
2018-10-18T19:24:26.640Z,90.14
2018-10-18T19:26:55.167Z,91.10
2018-10-18T19:29:23.816Z,90.13
2018-10-18T19:31:52.320Z,89.62
2018-10-18T19:34:20.744Z,90.08
2018-10-18T19:36:50.493Z,90.52
2018-10-18T19:39:18.822Z,89.37
2018-10-18T19:41:47.337Z,89.88
2018-10-18T19:44:15.692Z,90.06
2018-10-18T19:46:44.079Z,89.47
2018-10-18T19:49:12.564Z,90.11
2018-10-18T19:51:40.859Z,89.81
2018-10-18T19:54:09.152Z,89.60
2018-10-18T19:56:37.525Z,89.42
2018-10-18T19:59:06.303Z,89.91
2018-10-18T20:01:34.690Z,89.88
2018-10-18T20:04:03.031Z,89.86
2018-10-18T20:06:32.203Z,89.59
2018-10-18T20:09:00.525Z,89.55
2018-10-18T20:11:28.855Z,90.41
2018-10-18T20:13:57.287Z,90.99
2018-10-18T20:16:25.640Z,90.91
2018-10-18T20:18:53.992Z,90.86
2018-10-18T20:21:22.415Z,90.81
2018-10-18T20:23:50.719Z,90.78
2018-10-18T20:26:19.316Z,91.80
2018-10-18T20:28:47.406Z,91.12
2018-10-18T20:31:15.683Z,91.18
2018-10-18T20:33:44.286Z,91.40
2018-10-18T20:36:21.915Z,91.36
2018-10-18T20:38:50.211Z,91.36
2018-10-18T20:41:18.733Z,91.60
2018-10-18T20:43:47.147Z,92.39
2018-10-18T20:46:15.916Z,91.89
2018-10-18T20:48:44.258Z,92.63
2018-10-18T20:51:12.675Z,92.27
2018-10-18T20:53:40.977Z,92.45
2018-10-18T20:56:09.317Z,92.47
2018-10-18T20:58:37.764Z,91.81
2018-10-18T21:01:06.914Z,92.15
2018-10-18T21:03:35.853Z,91.89
2018-10-18T21:06:04.636Z,93.21
2018-10-18T21:08:32.859Z,92.41
2018-10-18T21:11:01.162Z,91.87
2018-10-18T21:13:29.508Z,92.99
2018-10-18T21:15:57.829Z,92.65
2018-10-18T21:18:26.137Z,93.29
2018-10-18T21:20:54.493Z,93.29
2018-10-18T21:23:22.913Z,94.00
2018-10-18T21:25:51.322Z,94.31
2018-10-18T21:28:19.698Z,95.05
2018-10-18T21:30:48.072Z,94.64
2018-10-18T21:33:16.389Z,94.13
2018-10-18T21:35:44.837Z,93.94
2018-10-18T21:38:13.171Z,93.52
2018-10-18T21:40:41.451Z,93.34
2018-10-18T21:43:09.752Z,93.01
2018-10-18T21:45:38.039Z,93.11
2018-10-18T21:48:06.455Z,93.98
2018-10-18T21:50:34.756Z,93.90
2018-10-18T21:53:03.122Z,94.01
2018-10-18T21:55:31.424Z,93.48
2018-10-18T21:57:59.845Z,93.65
2018-10-18T22:00:29.256Z,93.52
2018-10-18T22:02:57.570Z,93.51
2018-10-18T22:05:25.916Z,93.37
2018-10-18T22:07:54.322Z,93.48
2018-10-18T22:10:22.620Z,93.68
2018-10-18T22:12:50.961Z,93.24
2018-10-18T22:15:19.274Z,93.15
2018-10-18T22:17:47.589Z,92.83
2018-10-18T22:20:15.970Z,93.41
2018-10-18T22:22:44.251Z,94.01
2018-10-18T22:25:12.522Z,94.57
2018-10-18T22:27:40.850Z,93.49
2018-10-18T22:30:09.340Z,93.86
2018-10-18T22:32:37.724Z,93.93
2018-10-18T22:35:06.402Z,93.97
2018-10-18T22:37:34.691Z,93.55
2018-10-18T22:40:03.049Z,93.93
2018-10-18T22:42:31.418Z,93.78
2018-10-18T22:44:59.710Z,93.99
2018-10-18T22:47:28.012Z,93.97
2018-10-18T22:49:56.384Z,93.48
2018-10-18T22:52:24.719Z,93.28
2018-10-18T22:54:53.016Z,93.14
2018-10-18T22:57:21.351Z,92.78
2018-10-18T22:59:49.648Z,92.49
2018-10-18T23:02:17.932Z,92.72
2018-10-18T23:04:46.360Z,92.69
2018-10-18T23:07:14.704Z,92.67
2018-10-18T23:09:43.176Z,92.81
2018-10-18T23:12:11.508Z,93.01
2018-10-18T23:14:39.791Z,93.03
2018-10-18T23:17:08.146Z,93.16
2018-10-18T23:19:36.403Z,92.99
2018-10-18T23:22:06.737Z,92.95
2018-10-18T23:24:36.827Z,93.14
2018-10-18T23:27:05.510Z,93.02
2018-10-18T23:29:33.771Z,93.60
2018-10-18T23:32:02.090Z,93.24
2018-10-18T23:34:30.509Z,92.83
2018-10-18T23:36:59.126Z,93.50
2018-10-18T23:39:27.442Z,93.17
2018-10-18T23:41:55.765Z,92.89
2018-10-18T23:44:24.071Z,92.88
2018-10-18T23:46:52.450Z,92.98
2018-10-18T23:49:20.682Z,93.48
2018-10-18T23:51:49.051Z,93.19
2018-10-18T23:54:17.302Z,93.36
2018-10-18T23:56:45.596Z,93.41
2018-10-18T23:59:13.939Z,92.56
